Time;durP1;ratioP1;P1;durP2;ratioP2;P2;SDS_P1;SDS_P2;PMS_P1;PMS_P2;Temp;Humidity;BMP_temperature;BMP_pressure;BME280_temperature;BME280_humidity;BME280_pressure;Samples;Min_cycle;Max_cycle;Signal;HPM_P1;HPM_P2
2023/05/03 00:00:46;;;;;;;4.38;2.13;;;;;;;;;;5091078;28;20045;-78
2023/05/03 00:03:13;;;;;;;6.85;2.08;;;;;;;;;;5064116;28;20048;-77
2023/05/03 00:05:39;;;;;;;7.97;2.50;;;;;;;;;;5088861;27;20047;-78
2023/05/03 00:08:06;;;;;;;8.20;2.97;;;;;;;;;;5091334;27;20086;-82
2023/05/03 00:10:32;;;;;;;2.83;2.17;;;;;;;;;;5074648;28;20044;-82
2023/05/03 00:12:58;;;;;;;7.28;2.67;;;;;;;;;;5090273;27;20495;-82
2023/05/03 00:15:24;;;;;;;9.77;2.25;;;;;;;;;;5102732;27;20040;-82
2023/05/03 00:17:50;;;;;;;5.18;2.40;;;;;;;;;;5081750;27;20043;-82
2023/05/03 00:20:18;;;;;;;6.95;2.42;;;;;;;;;;5082191;27;20499;-82
2023/05/03 00:22:44;;;;;;;2.90;2.33;;;;;;;;;;5097431;27;20047;-82
2023/05/03 00:25:10;;;;;;;4.50;2.13;;;;;;;;;;5105086;27;20039;-82
2023/05/03 00:27:37;;;;;;;4.28;2.30;;;;;;;;;;5098197;27;20052;-78
2023/05/03 00:30:03;;;;;;;7.40;2.08;;;;;;;;;;5095846;27;20537;-78
2023/05/03 00:32:29;;;;;;;3.47;2.72;;;;;;;;;;5090518;27;20045;-79
2023/05/03 00:34:56;;;;;;;5.30;2.17;;;;;;;;;;5068838;27;20051;-79
2023/05/03 00:37:23;;;;;;;5.75;1.85;;;;;;;;;;5095599;27;20047;-79
2023/05/03 00:39:49;;;;;;;5.60;2.13;;;;;;;;;;5068464;27;20165;-79
2023/05/03 00:42:15;;;;;;;3.67;2.10;;;;;;;;;;5068990;27;20491;-79
2023/05/03 00:44:41;;;;;;;9.98;1.90;;;;;;;;;;5091224;27;20905;-79
2023/05/03 00:47:08;;;;;;;5.13;1.75;;;;;;;;;;5069501;27;22077;-79
2023/05/03 00:49:34;;;;;;;2.80;0.93;;;;;;;;;;5094214;27;20038;-79
2023/05/03 00:52:00;;;;;;;5.38;0.82;;;;;;;;;;5077675;27;20039;-77
2023/05/03 00:54:27;;;;;;;4.30;1.45;;;;;;;;;;5067007;27;20046;-79
2023/05/03 00:56:54;;;;;;;4.57;1.40;;;;;;;;;;5091061;27;20043;-84
2023/05/03 00:59:21;;;;;;;1.88;1.35;;;;;;;;;;5086598;27;20030;-80
2023/05/03 01:01:51;;;;;;;2.47;1.23;;;;;;;;;;5105457;27;20035;-81
2023/05/03 01:04:17;;;;;;;5.50;1.33;;;;;;;;;;5100116;27;20052;-78
2023/05/03 01:07:06;;;;;;;3.03;1.25;;;;;;;;;;5083197;27;20042;-78
2023/05/03 01:09:38;;;;;;;4.45;1.40;;;;;;;;;;5095307;27;20036;-78
2023/05/03 01:12:13;;;;;;;5.53;1.30;;;;;;;;;;5091385;27;20048;-78
2023/05/03 01:14:39;;;;;;;3.85;1.42;;;;;;;;;;5091828;27;20047;-77
2023/05/03 01:17:11;;;;;;;12.05;2.10;;;;;;;;;;5091471;27;20047;-79
2023/05/03 01:19:39;;;;;;;6.35;1.75;;;;;;;;;;5071701;27;20162;-78
2023/05/03 01:22:09;;;;;;;6.53;1.90;;;;;;;;;;5109404;27;20603;-77
2023/05/03 01:24:41;;;;;;;6.43;2.65;;;;;;;;;;5090486;27;20440;-78
2023/05/03 01:27:08;;;;;;;3.92;1.90;;;;;;;;;;5076863;27;21409;-78
2023/05/03 01:29:35;;;;;;;2.53;1.75;;;;;;;;;;5091323;27;20503;-77
2023/05/03 01:32:02;;;;;;;5.97;1.55;;;;;;;;;;5090016;27;20039;-77
2023/05/03 01:34:33;;;;;;;4.65;1.73;;;;;;;;;;5085224;27;20097;-77
2023/05/03 01:37:02;;;;;;;7.85;1.75;;;;;;;;;;5092972;27;20059;-77
2023/05/03 01:39:51;;;;;;;7.28;1.73;;;;;;;;;;5077267;27;20094;-78
2023/05/03 01:42:19;;;;;;;6.38;1.83;;;;;;;;;;5078111;27;20055;-78
2023/05/03 01:44:46;;;;;;;5.90;1.85;;;;;;;;;;5094546;27;20394;-78
2023/05/03 01:47:14;;;;;;;8.48;2.50;;;;;;;;;;5090676;27;20027;-78
2023/05/03 01:49:40;;;;;;;3.85;1.70;;;;;;;;;;5070528;27;20043;-77
2023/05/03 01:52:06;;;;;;;2.40;1.48;;;;;;;;;;5082586;27;20044;-78
2023/05/03 01:54:32;;;;;;;4.00;1.63;;;;;;;;;;5088616;27;20040;-78
2023/05/03 01:56:58;;;;;;;4.68;1.50;;;;;;;;;;5087858;27;20046;-76
2023/05/03 01:59:24;;;;;;;3.55;1.90;;;;;;;;;;5088254;27;20047;-78
2023/05/03 02:01:50;;;;;;;4.70;1.63;;;;;;;;;;5070367;27;20072;-78
2023/05/03 02:04:17;;;;;;;2.88;1.70;;;;;;;;;;5086058;27;20086;-78
2023/05/03 02:06:43;;;;;;;3.35;1.40;;;;;;;;;;5087719;27;20044;-77
2023/05/03 02:09:09;;;;;;;1.45;1.02;;;;;;;;;;5087235;27;20039;-77
2023/05/03 02:11:35;;;;;;;5.35;1.27;;;;;;;;;;5087186;27;20044;-77
2023/05/03 02:14:01;;;;;;;3.42;1.30;;;;;;;;;;5081007;27;21933;-77
2023/05/03 02:16:28;;;;;;;3.65;1.00;;;;;;;;;;5087504;27;20107;-77
2023/05/03 02:18:58;;;;;;;4.10;1.25;;;;;;;;;;5088852;27;20155;-77
2023/05/03 02:21:25;;;;;;;4.20;1.13;;;;;;;;;;5068385;27;20923;-77
2023/05/03 02:23:51;;;;;;;1.98;1.00;;;;;;;;;;5088969;27;20122;-77
2023/05/03 02:26:17;;;;;;;2.22;0.95;;;;;;;;;;5091108;27;20078;-78
2023/05/03 02:28:43;;;;;;;2.08;0.88;;;;;;;;;;5086749;27;20698;-76
2023/05/03 02:31:09;;;;;;;2.58;0.90;;;;;;;;;;5088608;27;20051;-77
2023/05/03 02:33:37;;;;;;;2.85;0.90;;;;;;;;;;5059625;28;20121;-78
2023/05/03 02:36:03;;;;;;;7.07;1.00;;;;;;;;;;5063516;27;20040;-77
2023/05/03 02:38:29;;;;;;;3.55;1.10;;;;;;;;;;5069320;28;20039;-77
2023/05/03 02:40:55;;;;;;;2.70;1.17;;;;;;;;;;5060777;27;20171;-77
2023/05/03 02:43:22;;;;;;;3.70;1.10;;;;;;;;;;5085278;27;20047;-78
2023/05/03 02:45:49;;;;;;;2.08;1.10;;;;;;;;;;5080592;27;20771;-78
2023/05/03 02:48:15;;;;;;;6.57;1.90;;;;;;;;;;5061761;28;20940;-78
2023/05/03 02:50:41;;;;;;;1.10;1.00;;;;;;;;;;5087407;27;20153;-78
2023/05/03 02:53:07;;;;;;;3.15;1.10;;;;;;;;;;5063678;27;20551;-78
2023/05/03 02:55:36;;;;;;;3.28;1.20;;;;;;;;;;5079950;27;20054;-78
2023/05/03 02:58:02;;;;;;;5.57;1.33;;;;;;;;;;5087568;27;20086;-78
2023/05/03 03:00:28;;;;;;;3.45;1.10;;;;;;;;;;5086935;27;20046;-78
2023/05/03 03:02:54;;;;;;;4.00;1.05;;;;;;;;;;5087671;27;20076;-78
2023/05/03 03:05:21;;;;;;;2.47;1.25;;;;;;;;;;5073657;27;20098;-78
2023/05/03 03:07:47;;;;;;;5.85;1.25;;;;;;;;;;5093339;27;20073;-78
2023/05/03 03:10:13;;;;;;;3.97;1.15;;;;;;;;;;5066789;28;20078;-78
2023/05/03 03:12:39;;;;;;;3.72;1.33;;;;;;;;;;5059965;28;20051;-78
2023/05/03 03:15:06;;;;;;;4.47;1.30;;;;;;;;;;5065286;28;20054;-78
2023/05/03 03:17:32;;;;;;;2.45;1.30;;;;;;;;;;5088433;28;20160;-78
2023/05/03 03:20:00;;;;;;;3.53;1.30;;;;;;;;;;5067557;28;20052;-78
2023/05/03 03:22:26;;;;;;;2.65;1.20;;;;;;;;;;5084943;28;20055;-78
2023/05/03 03:24:53;;;;;;;3.20;1.30;;;;;;;;;;5084106;27;20071;-78
2023/05/03 03:27:20;;;;;;;2.78;1.40;;;;;;;;;;5086529;27;20096;-78
2023/05/03 03:29:46;;;;;;;2.50;1.30;;;;;;;;;;5062073;28;20123;-78
2023/05/03 03:32:12;;;;;;;2.95;1.40;;;;;;;;;;5051565;28;20052;-78
2023/05/03 03:34:38;;;;;;;4.70;1.65;;;;;;;;;;5086326;27;20048;-78
2023/05/03 03:37:05;;;;;;;2.60;1.48;;;;;;;;;;5086247;27;22016;-78
2023/05/03 03:39:31;;;;;;;1.42;1.27;;;;;;;;;;5048144;28;20446;-78
2023/05/03 03:41:57;;;;;;;3.13;1.50;;;;;;;;;;5070631;27;20047;-78
2023/05/03 03:44:23;;;;;;;4.15;1.63;;;;;;;;;;5068801;28;20464;-78
2023/05/03 03:46:49;;;;;;;4.05;1.50;;;;;;;;;;5064491;28;20046;-79
2023/05/03 03:49:15;;;;;;;2.45;1.40;;;;;;;;;;5063771;28;22106;-79
2023/05/03 03:51:41;;;;;;;3.72;1.60;;;;;;;;;;5088185;27;20122;-79
2023/05/03 03:54:07;;;;;;;4.35;1.50;;;;;;;;;;5075906;27;20046;-79
2023/05/03 03:56:33;;;;;;;7.10;1.40;;;;;;;;;;5068652;27;20096;-79
2023/05/03 03:58:59;;;;;;;3.90;1.50;;;;;;;;;;5089855;27;20066;-79
2023/05/03 04:01:26;;;;;;;2.83;1.50;;;;;;;;;;5075177;27;20051;-79
2023/05/03 04:03:53;;;;;;;4.07;2.03;;;;;;;;;;5067831;27;20051;-79
2023/05/03 04:06:19;;;;;;;3.75;1.50;;;;;;;;;;5068161;27;20065;-79
2023/05/03 04:08:47;;;;;;;2.92;1.40;;;;;;;;;;5058755;27;20044;-80
2023/05/03 04:11:13;;;;;;;4.40;1.40;;;;;;;;;;5079440;27;20093;-81
2023/05/03 04:13:39;;;;;;;3.42;1.50;;;;;;;;;;5090969;27;20054;-79
2023/05/03 04:16:08;;;;;;;2.58;1.20;;;;;;;;;;5092137;27;20048;-79
2023/05/03 04:18:34;;;;;;;3.90;1.50;;;;;;;;;;5075431;27;20641;-79
2023/05/03 04:21:01;;;;;;;1.90;1.17;;;;;;;;;;5080509;27;20132;-80
2023/05/03 04:23:28;;;;;;;2.67;1.30;;;;;;;;;;5088843;27;20062;-79
2023/05/03 04:25:55;;;;;;;4.90;2.03;;;;;;;;;;5076471;27;20044;-81
2023/05/03 04:28:22;;;;;;;3.28;1.50;;;;;;;;;;5092832;27;20039;-79
2023/05/03 04:30:48;;;;;;;4.55;1.50;;;;;;;;;;5093410;27;20047;-79
2023/05/03 04:33:15;;;;;;;6.97;1.48;;;;;;;;;;5070698;27;20082;-80
2023/05/03 04:35:41;;;;;;;3.28;1.63;;;;;;;;;;5076531;27;20038;-81
2023/05/03 04:38:08;;;;;;;3.85;1.30;;;;;;;;;;5070139;27;20055;-80
2023/05/03 04:40:34;;;;;;;3.47;1.23;;;;;;;;;;5085116;27;20134;-80
2023/05/03 04:43:00;;;;;;;2.78;1.50;;;;;;;;;;5092697;27;20046;-80
2023/05/03 04:45:27;;;;;;;4.22;1.45;;;;;;;;;;5088513;27;20054;-80
2023/05/03 04:47:55;;;;;;;5.68;1.65;;;;;;;;;;5087773;27;20044;-80
2023/05/03 04:50:21;;;;;;;5.03;1.80;;;;;;;;;;5081532;27;20043;-80
2023/05/03 04:52:47;;;;;;;2.50;1.38;;;;;;;;;;5090965;27;21962;-82
2023/05/03 04:55:14;;;;;;;2.97;1.63;;;;;;;;;;5096470;27;20436;-82
2023/05/03 04:57:40;;;;;;;3.90;1.70;;;;;;;;;;5096453;27;20044;-81
2023/05/03 05:00:10;;;;;;;5.63;2.63;;;;;;;;;;5070089;27;20043;-82
2023/05/03 05:02:36;;;;;;;6.15;1.85;;;;;;;;;;5094679;27;20075;-82
2023/05/03 05:05:02;;;;;;;6.90;1.40;;;;;;;;;;5097469;27;20039;-83
2023/05/03 05:07:33;;;;;;;3.67;1.35;;;;;;;;;;5101054;27;20067;-82
2023/05/03 05:10:02;;;;;;;5.55;1.48;;;;;;;;;;5095238;27;20043;-82
2023/05/03 05:12:28;;;;;;;3.33;1.30;;;;;;;;;;5090943;27;20503;-81
2023/05/03 05:14:54;;;;;;;5.32;1.80;;;;;;;;;;5092408;27;20348;-79
2023/05/03 05:17:21;;;;;;;5.53;1.85;;;;;;;;;;5091011;27;20589;-80
2023/05/03 05:19:47;;;;;;;7.57;1.65;;;;;;;;;;5078782;27;20150;-80
2023/05/03 05:22:13;;;;;;;2.65;1.60;;;;;;;;;;5081897;27;20135;-81
2023/05/03 05:24:39;;;;;;;4.75;1.40;;;;;;;;;;5098109;27;20126;-81
2023/05/03 05:27:06;;;;;;;7.82;2.03;;;;;;;;;;5069981;27;20158;-81
2023/05/03 05:29:32;;;;;;;4.05;1.42;;;;;;;;;;5096751;27;20494;-81
2023/05/03 05:32:00;;;;;;;8.27;1.65;;;;;;;;;;5091463;27;20044;-82
2023/05/03 05:34:26;;;;;;;4.88;1.40;;;;;;;;;;5094459;27;20395;-81
2023/05/03 05:36:52;;;;;;;7.53;1.60;;;;;;;;;;5085646;27;20043;-81
2023/05/03 05:39:19;;;;;;;1.73;1.15;;;;;;;;;;5092834;27;22154;-82
2023/05/03 05:41:45;;;;;;;1.70;1.30;;;;;;;;;;5078329;27;20039;-82
2023/05/03 05:44:12;;;;;;;2.45;1.08;;;;;;;;;;5080272;27;20070;-82
2023/05/03 05:46:38;;;;;;;4.93;1.58;;;;;;;;;;5070557;27;20112;-81
2023/05/03 05:49:04;;;;;;;3.33;1.40;;;;;;;;;;5073080;27;20044;-82
2023/05/03 05:51:30;;;;;;;5.20;1.63;;;;;;;;;;5091469;27;20073;-81
2023/05/03 05:53:57;;;;;;;5.38;2.00;;;;;;;;;;5070519;27;20085;-81
2023/05/03 05:56:23;;;;;;;5.78;1.40;;;;;;;;;;5068108;27;20036;-81
2023/05/03 05:58:49;;;;;;;3.75;1.25;;;;;;;;;;5079784;27;20882;-81
2023/05/03 06:01:15;;;;;;;4.97;1.48;;;;;;;;;;5094514;27;20044;-82
2023/05/03 06:03:41;;;;;;;2.42;1.20;;;;;;;;;;5103612;27;20095;-83
2023/05/03 06:06:08;;;;;;;4.45;1.50;;;;;;;;;;5080014;27;20050;-83
2023/05/03 06:08:35;;;;;;;7.75;1.45;;;;;;;;;;5079593;27;20071;-82
2023/05/03 06:11:01;;;;;;;2.42;1.33;;;;;;;;;;5099834;27;20051;-81
2023/05/03 06:13:27;;;;;;;4.70;1.40;;;;;;;;;;5094138;27;20051;-81
2023/05/03 06:15:53;;;;;;;6.07;1.48;;;;;;;;;;5083737;27;20597;-82
2023/05/03 06:18:19;;;;;;;2.33;1.20;;;;;;;;;;5078382;27;20032;-82
2023/05/03 06:20:49;;;;;;;4.88;1.77;;;;;;;;;;5061851;27;20085;-82
2023/05/03 06:23:15;;;;;;;6.63;1.10;;;;;;;;;;5089803;27;20064;-82
2023/05/03 06:25:41;;;;;;;2.83;1.25;;;;;;;;;;5072430;27;20039;-82
2023/05/03 06:28:07;;;;;;;6.20;1.67;;;;;;;;;;5086181;27;20070;-82
2023/05/03 06:30:34;;;;;;;6.35;1.20;;;;;;;;;;5074426;27;22198;-82
2023/05/03 06:33:00;;;;;;;2.58;1.00;;;;;;;;;;5072697;27;20039;-82
2023/05/03 06:35:26;;;;;;;4.68;1.30;;;;;;;;;;5096272;27;20035;-81
2023/05/03 06:37:52;;;;;;;3.85;1.00;;;;;;;;;;5089379;27;20043;-83
2023/05/03 06:40:18;;;;;;;5.80;1.00;;;;;;;;;;5096712;27;20063;-82
2023/05/03 06:42:45;;;;;;;2.53;1.00;;;;;;;;;;5095002;27;20039;-85
2023/05/03 06:45:11;;;;;;;2.72;1.10;;;;;;;;;;5066250;27;20040;-84
2023/05/03 06:47:38;;;;;;;2.65;1.23;;;;;;;;;;5095111;27;20114;-84
2023/05/03 06:50:05;;;;;;;3.72;1.10;;;;;;;;;;5095885;27;20051;-81
2023/05/03 06:52:31;;;;;;;4.35;1.10;;;;;;;;;;5089548;27;20055;-78
2023/05/03 06:54:57;;;;;;;4.57;1.00;;;;;;;;;;5066506;28;20040;-77
2023/05/03 06:57:24;;;;;;;4.68;1.10;;;;;;;;;;5064115;27;20095;-78
2023/05/03 06:59:50;;;;;;;3.78;1.08;;;;;;;;;;5065113;27;20078;-78
2023/05/03 07:02:17;;;;;;;3.63;1.10;;;;;;;;;;5068511;27;20050;-77
2023/05/03 07:04:43;;;;;;;3.28;1.23;;;;;;;;;;5084085;27;20058;-78
2023/05/03 07:07:09;;;;;;;4.75;1.10;;;;;;;;;;5064332;28;20051;-78
2023/05/03 07:09:35;;;;;;;4.63;0.93;;;;;;;;;;5088007;27;20341;-78
2023/05/03 07:12:02;;;;;;;4.80;1.02;;;;;;;;;;5051185;28;20039;-78
2023/05/03 07:14:30;;;;;;;3.30;0.85;;;;;;;;;;5090826;27;20051;-78
2023/05/03 07:16:56;;;;;;;4.20;0.98;;;;;;;;;;5091584;27;20031;-78
2023/05/03 07:19:22;;;;;;;3.78;1.02;;;;;;;;;;5068338;27;20154;-78
2023/05/03 07:21:48;;;;;;;5.63;1.10;;;;;;;;;;5091443;27;20051;-77
2023/05/03 07:24:14;;;;;;;3.10;1.00;;;;;;;;;;5089622;27;20044;-78
2023/05/03 07:26:40;;;;;;;2.03;0.93;;;;;;;;;;5073631;28;20068;-78
2023/05/03 07:29:07;;;;;;;4.13;0.90;;;;;;;;;;5081619;27;20042;-78
2023/05/03 07:31:33;;;;;;;5.43;1.10;;;;;;;;;;5088632;27;20057;-79
2023/05/03 07:33:59;;;;;;;6.22;1.25;;;;;;;;;;5074619;28;20044;-79
2023/05/03 07:36:26;;;;;;;15.68;1.10;;;;;;;;;;5086756;27;20038;-79
2023/05/03 07:38:55;;;;;;;2.50;1.00;;;;;;;;;;5088513;27;20040;-79
2023/05/03 07:41:21;;;;;;;3.13;1.15;;;;;;;;;;5094792;27;20472;-82
2023/05/03 07:43:48;;;;;;;4.43;1.25;;;;;;;;;;5097671;27;20059;-83
2023/05/03 07:46:14;;;;;;;3.45;1.20;;;;;;;;;;5091180;27;20048;-82
2023/05/03 07:48:40;;;;;;;3.13;1.58;;;;;;;;;;5059145;28;20036;-82
2023/05/03 07:51:06;;;;;;;1.75;0.80;;;;;;;;;;5107988;27;21119;-82
2023/05/03 07:53:34;;;;;;;3.63;1.38;;;;;;;;;;5107673;28;20040;-83
2023/05/03 07:56:00;;;;;;;2.92;1.15;;;;;;;;;;5096438;27;20173;-83
2023/05/03 07:58:26;;;;;;;2.13;1.15;;;;;;;;;;5101620;27;20027;-82
2023/05/03 08:00:52;;;;;;;2.85;1.05;;;;;;;;;;5097323;28;20046;-83
2023/05/03 08:03:19;;;;;;;2.28;0.95;;;;;;;;;;5074286;28;20051;-83
2023/05/03 08:05:46;;;;;;;4.13;1.10;;;;;;;;;;5101342;27;20043;-82
2023/05/03 08:08:13;;;;;;;1.50;0.80;;;;;;;;;;5060631;28;22025;-80
2023/05/03 08:10:39;;;;;;;2.25;1.08;;;;;;;;;;5087281;27;20039;-82
2023/05/03 08:13:05;;;;;;;13.02;1.25;;;;;;;;;;5097318;28;20062;-82
2023/05/03 08:15:35;;;;;;;4.55;1.23;;;;;;;;;;5095099;28;20054;-82
2023/05/03 08:18:01;;;;;;;4.38;1.20;;;;;;;;;;5094205;28;20043;-81
2023/05/03 08:20:28;;;;;;;5.15;1.05;;;;;;;;;;5094526;27;20062;-81
2023/05/03 08:22:55;;;;;;;4.07;1.20;;;;;;;;;;5086150;28;20040;-82
2023/05/03 08:25:23;;;;;;;6.65;1.50;;;;;;;;;;5097158;27;20054;-83
2023/05/03 08:27:50;;;;;;;2.25;1.20;;;;;;;;;;5071613;28;20609;-83
2023/05/03 08:30:16;;;;;;;1.48;0.80;;;;;;;;;;5081295;27;20047;-83
2023/05/03 08:32:42;;;;;;;4.65;1.65;;;;;;;;;;5086056;28;20051;-82
2023/05/03 08:35:09;;;;;;;2.05;1.02;;;;;;;;;;5091745;27;20031;-81
2023/05/03 08:37:42;;;;;;;2.63;0.90;;;;;;;;;;5083379;27;20084;-82
2023/05/03 08:40:10;;;;;;;2.13;1.00;;;;;;;;;;5100265;27;20185;-81
2023/05/03 08:42:44;;;;;;;1.30;0.70;;;;;;;;;;5098912;27;20059;-81
2023/05/03 08:45:13;;;;;;;3.20;1.15;;;;;;;;;;5097323;27;20071;-82
2023/05/03 08:47:43;;;;;;;4.82;1.00;;;;;;;;;;5099806;27;20043;-81
2023/05/03 08:50:10;;;;;;;5.40;1.20;;;;;;;;;;5089151;27;20058;-82
2023/05/03 08:52:36;;;;;;;2.40;1.00;;;;;;;;;;5092898;27;20059;-82
2023/05/03 08:55:03;;;;;;;4.20;1.05;;;;;;;;;;5095088;27;20046;-81
2023/05/03 08:57:30;;;;;;;4.45;1.02;;;;;;;;;;5096135;27;20043;-81
2023/05/03 08:59:59;;;;;;;5.32;1.20;;;;;;;;;;5073639;27;20071;-81
2023/05/03 09:02:26;;;;;;;4.20;1.10;;;;;;;;;;5071476;27;20056;-80
2023/05/03 09:04:52;;;;;;;4.15;1.08;;;;;;;;;;5073900;27;20174;-81
2023/05/03 09:07:21;;;;;;;2.88;1.13;;;;;;;;;;5097779;27;20048;-80
2023/05/03 09:09:47;;;;;;;10.80;1.55;;;;;;;;;;5086309;27;20047;-80
2023/05/03 09:12:32;;;;;;;2.10;1.08;;;;;;;;;;5093018;27;20149;-82
2023/05/03 09:15:02;;;;;;;3.05;0.90;;;;;;;;;;5092733;27;20129;-82
2023/05/03 09:17:28;;;;;;;3.00;1.10;;;;;;;;;;5091443;27;20039;-80
2023/05/03 09:19:58;;;;;;;4.53;0.95;;;;;;;;;;5091220;27;20063;-78
2023/05/03 09:22:32;;;;;;;5.85;1.08;;;;;;;;;;5069327;27;20159;-80
2023/05/03 09:24:59;;;;;;;4.65;1.17;;;;;;;;;;5090239;27;20047;-78
2023/05/03 09:27:26;;;;;;;6.10;1.00;;;;;;;;;;5069920;27;20044;-78
2023/05/03 09:29:53;;;;;;;6.05;1.10;;;;;;;;;;5092012;27;20065;-81
2023/05/03 09:32:21;;;;;;;2.33;1.00;;;;;;;;;;5074182;27;20044;-81
2023/05/03 09:34:48;;;;;;;5.28;0.90;;;;;;;;;;5067328;27;20042;-81
2023/05/03 09:37:14;;;;;;;3.17;1.10;;;;;;;;;;5092849;27;20040;-81
2023/05/03 09:39:41;;;;;;;6.10;1.25;;;;;;;;;;5092462;27;20043;-81
2023/05/03 09:42:17;;;;;;;6.13;1.30;;;;;;;;;;5093036;27;20059;-83
2023/05/03 09:44:50;;;;;;;2.63;1.33;;;;;;;;;;5068677;27;20098;-80
2023/05/03 09:47:24;;;;;;;2.97;1.05;;;;;;;;;;5089977;27;20055;-81
2023/05/03 09:49:50;;;;;;;2.22;0.90;;;;;;;;;;5090500;27;20052;-82
2023/05/03 09:52:16;;;;;;;2.35;1.15;;;;;;;;;;5096500;27;20043;-81
2023/05/03 09:54:43;;;;;;;1.33;1.00;;;;;;;;;;5084180;27;20043;-81
2023/05/03 09:57:09;;;;;;;3.97;1.20;;;;;;;;;;5090688;27;20786;-82
2023/05/03 09:59:36;;;;;;;2.30;0.95;;;;;;;;;;5091892;27;20108;-81
2023/05/03 10:02:03;;;;;;;5.95;1.00;;;;;;;;;;5092527;27;20035;-81
2023/05/03 10:04:35;;;;;;;2.80;1.00;;;;;;;;;;5090621;27;20052;-81
2023/05/03 10:07:03;;;;;;;6.97;1.10;;;;;;;;;;5074874;27;20039;-81
2023/05/03 10:09:36;;;;;;;3.92;1.52;;;;;;;;;;5082273;27;20434;-81
2023/05/03 10:12:04;;;;;;;5.37;1.50;;;;;;;;;;5092708;27;20040;-81
2023/05/03 10:14:31;;;;;;;6.05;1.90;;;;;;;;;;5082941;27;20105;-80
2023/05/03 10:17:10;;;;;;;3.22;1.23;;;;;;;;;;5089335;27;20043;-78
2023/05/03 10:19:46;;;;;;;3.40;1.20;;;;;;;;;;5068054;27;20059;-78
2023/05/03 10:22:12;;;;;;;2.72;1.30;;;;;;;;;;5094343;27;20043;-78
2023/05/03 10:25:01;;;;;;;6.15;1.75;;;;;;;;;;5084853;27;20187;-77
2023/05/03 10:27:40;;;;;;;2.35;1.27;;;;;;;;;;5094679;27;20109;-77
2023/05/03 10:30:08;;;;;;;4.65;1.40;;;;;;;;;;5095511;27;20063;-76
2023/05/03 10:33:11;;;;;;;7.00;1.40;;;;;;;;;;5088583;27;20066;-79
2023/05/03 10:35:41;;;;;;;5.20;1.50;;;;;;;;;;5099445;27;20039;-81
2023/05/03 10:38:14;;;;;;;1.85;1.38;;;;;;;;;;5097944;27;20470;-81
2023/05/03 10:40:42;;;;;;;8.15;1.42;;;;;;;;;;5096069;27;20039;-81
2023/05/03 10:43:31;;;;;;;2.83;1.20;;;;;;;;;;5092204;27;20058;-76
2023/05/03 10:46:01;;;;;;;4.47;1.27;;;;;;;;;;5077854;28;20098;-77
2023/05/03 10:48:27;;;;;;;4.40;1.20;;;;;;;;;;5071233;27;20048;-78
2023/05/03 10:50:54;;;;;;;3.38;1.30;;;;;;;;;;5066737;27;20155;-76
2023/05/03 10:53:37;;;;;;;3.92;1.40;;;;;;;;;;5067697;27;20044;-77
2023/05/03 10:56:07;;;;;;;6.07;1.45;;;;;;;;;;5092101;27;20050;-81
2023/05/03 10:58:37;;;;;;;3.53;1.20;;;;;;;;;;5091483;27;21544;-80
2023/05/03 11:01:08;;;;;;;3.03;1.25;;;;;;;;;;5088408;27;20039;-77
2023/05/03 11:03:43;;;;;;;3.08;1.27;;;;;;;;;;5063614;27;20261;-77
2023/05/03 11:06:09;;;;;;;5.00;1.42;;;;;;;;;;5084949;27;20052;-78
2023/05/03 11:08:38;;;;;;;6.05;1.17;;;;;;;;;;5080436;27;20403;-77
2023/05/03 11:11:08;;;;;;;5.55;1.40;;;;;;;;;;5051280;27;20664;-78
2023/05/03 11:13:35;;;;;;;4.47;1.27;;;;;;;;;;5050937;28;20039;-76
2023/05/03 11:16:02;;;;;;;7.93;1.40;;;;;;;;;;5062956;28;20054;-77
2023/05/03 11:18:29;;;;;;;1.98;1.20;;;;;;;;;;5064758;28;20809;-76
2023/05/03 11:20:56;;;;;;;6.50;1.48;;;;;;;;;;5068975;27;20051;-77
2023/05/03 11:23:27;;;;;;;4.35;1.60;;;;;;;;;;5062549;28;20043;-78
2023/05/03 11:25:53;;;;;;;3.50;1.13;;;;;;;;;;5087539;27;20054;-78
2023/05/03 11:28:20;;;;;;;4.75;1.67;;;;;;;;;;5088877;28;20048;-78
2023/05/03 11:30:46;;;;;;;4.35;1.50;;;;;;;;;;5090923;27;20074;-77
2023/05/03 11:33:12;;;;;;;4.57;1.50;;;;;;;;;;5070437;28;20044;-77
2023/05/03 11:35:41;;;;;;;7.88;1.52;;;;;;;;;;5067230;28;20118;-77
2023/05/03 11:38:07;;;;;;;3.90;1.45;;;;;;;;;;5090353;27;20047;-75
2023/05/03 11:40:33;;;;;;;4.65;1.52;;;;;;;;;;5076815;28;20039;-83
2023/05/03 11:42:59;;;;;;;8.45;1.40;;;;;;;;;;5083842;27;20398;-77
2023/05/03 11:45:25;;;;;;;3.17;1.20;;;;;;;;;;5090693;28;20050;-77
2023/05/03 11:47:52;;;;;;;5.70;1.65;;;;;;;;;;5083088;27;20100;-77
2023/05/03 11:50:18;;;;;;;6.57;1.60;;;;;;;;;;5084728;27;21112;-81
2023/05/03 11:52:45;;;;;;;7.53;1.33;;;;;;;;;;5074153;27;21038;-80
2023/05/03 11:55:11;;;;;;;3.05;1.08;;;;;;;;;;5086543;28;20123;-82
2023/05/03 11:57:38;;;;;;;3.55;1.17;;;;;;;;;;5065021;28;20044;-81
2023/05/03 12:00:16;;;;;;;3.83;1.35;;;;;;;;;;5069713;28;20129;-81
2023/05/03 12:02:43;;;;;;;4.32;1.50;;;;;;;;;;5066257;27;20048;-81
2023/05/03 12:05:10;;;;;;;3.70;1.50;;;;;;;;;;5090358;28;20507;-81
2023/05/03 12:07:37;;;;;;;2.03;1.20;;;;;;;;;;5091148;27;20389;-77
2023/05/03 12:10:15;;;;;;;5.30;1.33;;;;;;;;;;5088716;27;20420;-77
2023/05/03 12:12:50;;;;;;;3.72;1.20;;;;;;;;;;5092949;27;20699;-77
2023/05/03 12:15:26;;;;;;;5.32;1.58;;;;;;;;;;5093364;27;20063;-78
2023/05/03 12:17:55;;;;;;;6.63;1.38;;;;;;;;;;5095472;27;21674;-77
2023/05/03 12:20:22;;;;;;;3.83;1.25;;;;;;;;;;5072721;27;20043;-77
2023/05/03 12:22:49;;;;;;;2.92;1.10;;;;;;;;;;5094995;27;20093;-77
2023/05/03 12:25:15;;;;;;;3.25;1.20;;;;;;;;;;5091250;27;20047;-78
2023/05/03 12:27:41;;;;;;;5.07;1.30;;;;;;;;;;5093864;27;20087;-77
2023/05/03 12:30:11;;;;;;;5.78;1.45;;;;;;;;;;5093332;27;20063;-76
2023/05/03 12:32:37;;;;;;;3.63;1.20;;;;;;;;;;5075622;27;20521;-77
2023/05/03 12:35:10;;;;;;;6.20;1.42;;;;;;;;;;5091650;27;20040;-78
2023/05/03 12:37:37;;;;;;;6.07;1.67;;;;;;;;;;5092232;27;21875;-78
2023/05/03 12:40:04;;;;;;;6.28;1.33;;;;;;;;;;5067666;27;20062;-78
2023/05/03 12:42:33;;;;;;;4.53;1.05;;;;;;;;;;5069747;27;20525;-78
2023/05/03 12:45:05;;;;;;;5.22;1.55;;;;;;;;;;5067308;27;20039;-79
2023/05/03 12:47:55;;;;;;;4.50;1.23;;;;;;;;;;5084513;27;20046;-79
2023/05/03 12:50:21;;;;;;;5.13;1.23;;;;;;;;;;5066854;27;20047;-79
2023/05/03 12:52:51;;;;;;;4.30;1.40;;;;;;;;;;5072752;27;20931;-79
2023/05/03 12:55:17;;;;;;;4.78;1.45;;;;;;;;;;5067632;27;20043;-79
2023/05/03 12:57:43;;;;;;;5.25;1.30;;;;;;;;;;5070376;27;20042;-79
2023/05/03 13:00:10;;;;;;;4.95;1.42;;;;;;;;;;5070683;27;20127;-79
2023/05/03 13:02:36;;;;;;;3.85;1.38;;;;;;;;;;5094487;27;20035;-79
2023/05/03 13:05:20;;;;;;;6.15;1.20;;;;;;;;;;5071139;27;20498;-79
2023/05/03 13:07:47;;;;;;;;;;;;;;;;;;5076044;27;20039;-78
2023/05/03 13:10:18;;;;;;;5.85;2.00;;;;;;;;;;5080948;27;20781;-78
2023/05/03 13:12:45;;;;;;;6.05;1.58;;;;;;;;;;5078912;27;20047;-78
2023/05/03 13:15:11;;;;;;;4.57;1.30;;;;;;;;;;5086562;27;20629;-78
2023/05/03 13:20:27;;;;;;;3.72;1.38;;;;;;;;;;5093705;27;20848;-79
2023/05/03 13:22:54;;;;;;;3.35;1.58;;;;;;;;;;5103416;27;20043;-78
2023/05/03 13:25:41;;;;;;;2.70;0.93;;;;;;;;;;5096987;27;20032;-79
2023/05/03 13:28:10;;;;;;;7.15;1.90;;;;;;;;;;5104204;27;20047;-79
2023/05/03 13:30:45;;;;;;;5.65;1.42;;;;;;;;;;5058790;27;20057;-78
2023/05/03 13:33:16;;;;;;;4.75;1.33;;;;;;;;;;5070618;27;20045;-78
2023/05/03 13:35:52;;;;;;;3.45;1.50;;;;;;;;;;5077069;27;20044;-78
2023/05/03 13:38:30;;;;;;;3.10;1.10;;;;;;;;;;5087228;27;20040;-79
2023/05/03 13:41:15;;;;;;;3.58;1.30;;;;;;;;;;5080212;27;20490;-79
2023/05/03 13:43:51;;;;;;;4.68;1.17;;;;;;;;;;5079331;27;20063;-78
2023/05/03 13:46:27;;;;;;;4.40;1.50;;;;;;;;;;5087020;27;20491;-80
2023/05/03 13:48:55;;;;;;;2.97;1.50;;;;;;;;;;5094418;27;20052;-79
2023/05/03 13:51:23;;;;;;;2.42;1.35;;;;;;;;;;5095221;27;20060;-79
2023/05/03 13:53:50;;;;;;;3.63;1.30;;;;;;;;;;5096096;27;20060;-79
2023/05/03 13:56:16;;;;;;;5.57;1.10;;;;;;;;;;5051891;27;20047;-77
2023/05/03 13:58:42;;;;;;;4.38;1.50;;;;;;;;;;5088562;27;20525;-80
2023/05/03 14:01:08;;;;;;;5.80;1.58;;;;;;;;;;5065891;27;20047;-80
2023/05/03 14:03:34;;;;;;;1.45;1.10;;;;;;;;;;5062634;27;20162;-79
2023/05/03 14:06:01;;;;;;;5.28;1.50;;;;;;;;;;5063853;27;20126;-78
2023/05/03 14:08:27;;;;;;;4.03;1.25;;;;;;;;;;5065851;27;20070;-78
2023/05/03 14:10:54;;;;;;;1.40;1.05;;;;;;;;;;5068758;27;20098;-79
2023/05/03 14:13:20;;;;;;;3.08;1.20;;;;;;;;;;5067257;27;22084;-79
2023/05/03 14:15:46;;;;;;;5.15;1.60;;;;;;;;;;5076285;27;20187;-79
2023/05/03 14:18:14;;;;;;;7.07;1.65;;;;;;;;;;5086637;27;20042;-79
2023/05/03 14:20:41;;;;;;;5.30;1.50;;;;;;;;;;5089613;27;20066;-78
2023/05/03 14:23:07;;;;;;;2.38;1.30;;;;;;;;;;5088593;27;20530;-79
2023/05/03 14:25:35;;;;;;;3.60;1.23;;;;;;;;;;5087930;27;20165;-79
2023/05/03 14:28:01;;;;;;;3.33;1.50;;;;;;;;;;5086366;27;20899;-78
2023/05/03 14:30:27;;;;;;;3.40;1.45;;;;;;;;;;5079894;27;20044;-76
2023/05/03 14:32:53;;;;;;;6.78;2.22;;;;;;;;;;5061505;27;20510;-76
2023/05/03 14:35:20;;;;;;;6.07;1.35;;;;;;;;;;5075516;27;20487;-76
2023/05/03 14:37:46;;;;;;;4.90;1.20;;;;;;;;;;5083825;27;20040;-76
2023/05/03 14:40:13;;;;;;;4.57;1.40;;;;;;;;;;5083578;27;20044;-76
2023/05/03 14:42:39;;;;;;;3.10;1.33;;;;;;;;;;5084765;27;20050;-76
2023/05/03 14:45:06;;;;;;;6.25;1.17;;;;;;;;;;5065527;27;20153;-75
2023/05/03 14:47:33;;;;;;;3.72;1.05;;;;;;;;;;5085733;27;20047;-75
2023/05/03 14:49:59;;;;;;;5.95;1.35;;;;;;;;;;5080572;27;20062;-76